»·PEaware :: N28SN KOAK-KMMH

N28SN :: KOAK-KMMH

FLIGHT INFORMATION

Flight Status: Arrived
Operator: Privately registered:
United States
More flights under this callsign
Pilot: Stephen N. (18550)
Aircraft: Unknown
(SF50)
More flights by this aircraft type
Origin: KOAK Metro Oakland Intl
United States
Destination: KMMH Mammoth Yosemite
United States
More flights between these airports :: More routes between these airports
Route: +ALTAM T298 NIKOL
File this flight plan on PilotEdge
Remarks: Request RNAV GPS 27
Altitude:
(Current/Filed)
9,000ft
Speed:
(Current/Filed)
180kts
Departed: 19-May-18 07:26 AM
Arrived: 19-May-18 08:26 AM
Distance/Time
Traveled:
161nm/1:00
Distance/Time
To Go:
Arrived

Flight Plot

Page will automatically refresh every two minutes.

Flight plan parsing failed; only flown route is shown


Map Options




Map Legend


Flown Route
Filed Route
Departure Airport
Arrival Airport
Navaid (VOR, NDB)
Fix

Horizontal Profiles

Position Reports

Time Latitude Longitude Heading Altitude Ground
Speed
19-May-18 07:07 37.730581 -122.213008 123 8ft 0kts
19-May-18 07:08 37.730581 -122.213008 123 8ft 0kts
19-May-18 07:09 37.730581 -122.213008 123 8ft 0kts
19-May-18 07:10 37.730581 -122.213008 123 8ft 0kts
19-May-18 07:11 37.730581 -122.213008 123 8ft 0kts
19-May-18 07:12 37.730581 -122.213008 123 8ft 0kts
19-May-18 07:13 37.730581 -122.213008 123 8ft 0kts
19-May-18 07:14 37.730581 -122.213008 123 8ft 0kts
19-May-18 07:15 37.730581 -122.213008 123 8ft 0kts
19-May-18 07:16 37.730581 -122.213008 123 8ft 0kts
19-May-18 07:17 37.730581 -122.213008 123 8ft 0kts
19-May-18 07:18 37.730581 -122.213008 123 8ft 0kts
19-May-18 07:19 37.730581 -122.213008 123 8ft 0kts
19-May-18 07:20 37.730216 -122.213131 213 8ft 10kts
19-May-18 07:21 37.729453 -122.213709 180 8ft 8kts
19-May-18 07:22 37.727190 -122.208804 113 8ft 19kts
19-May-18 07:23 37.725768 -122.205046 122 8ft 0kts
19-May-18 07:24 37.725766 -122.205044 122 8ft 0kts
19-May-18 07:25 37.725766 -122.205043 122 8ft 0kts
19-May-18 07:26 37.727041 -122.211550 292 17ft 97kts
19-May-18 07:27 37.737897 -122.249205 294 1596ft 128kts
19-May-18 07:28 37.752579 -122.299181 291 2588ft 208kts
19-May-18 07:29 37.774855 -122.370563 312 3243ft 233kts
19-May-18 07:30 37.809104 -122.337461 115 3888ft 226kts
19-May-18 07:31 37.785568 -122.266335 101 4573ft 219kts
19-May-18 07:32 37.783537 -122.205243 87 5124ft 218kts
19-May-18 07:33 37.787548 -122.129617 86 5815ft 216kts
19-May-18 07:34 37.792359 -122.054950 85 6504ft 214kts
19-May-18 07:35 37.796776 -121.987236 85 7135ft 212kts
19-May-18 07:36 37.801372 -121.916355 85 7801ft 210kts
19-May-18 07:37 37.806075 -121.843065 85 8497ft 208kts
19-May-18 07:38 37.811621 -121.755836 84 8981ft 231kts
19-May-18 07:39 37.832641 -121.690156 65 8981ft 251kts
19-May-18 07:40 37.861794 -121.607995 65 8981ft 260kts
19-May-18 07:41 37.891717 -121.523768 64 8964ft 264kts
19-May-18 07:42 37.921956 -121.438436 64 8948ft 266kts
19-May-18 07:43 37.952261 -121.352673 64 8946ft 266kts
19-May-18 07:44 37.981527 -121.269518 66 8943ft 266kts
19-May-18 07:45 38.000406 -121.178622 75 8944ft 267kts
19-May-18 07:46 38.018413 -121.087609 76 8947ft 266kts
19-May-18 07:47 38.036330 -120.996489 76 8950ft 266kts
19-May-18 07:48 38.054140 -120.905471 76 8953ft 265kts
19-May-18 07:49 38.071805 -120.814855 76 8954ft 264kts
19-May-18 07:50 38.089360 -120.724416 76 8954ft 264kts
19-May-18 07:51 38.106483 -120.635810 76 8954ft 264kts
19-May-18 07:52 38.123133 -120.549408 77 10397ft 245kts
19-May-18 07:53 38.139389 -120.464524 77 11445ft 248kts
19-May-18 07:54 38.155564 -120.379066 81 12391ft 251kts
19-May-18 07:55 38.148236 -120.292292 99 13487ft 241kts
19-May-18 07:56 38.139452 -120.208475 99 14495ft 242kts
19-May-18 07:57 38.130159 -120.121155 99 14880ft 263kts
19-May-18 07:58 38.119935 -120.025808 99 14885ft 279kts
19-May-18 07:59 38.109392 -119.928115 99 14899ft 270kts
19-May-18 08:00 38.099554 -119.837732 99 14941ft 251kts
19-May-18 08:01 38.090078 -119.751321 99 14986ft 243kts
19-May-18 08:02 38.080762 -119.666912 99 14992ft 241kts
19-May-18 08:03 38.071390 -119.582604 99 14994ft 241kts
19-May-18 08:04 38.062223 -119.500646 99 14998ft 240kts
19-May-18 08:05 38.052756 -119.416554 99 14999ft 240kts
19-May-18 08:06 38.043271 -119.332852 100 14999ft 240kts
19-May-18 08:07 38.033698 -119.248934 100 14998ft 240kts
19-May-18 08:08 38.024058 -119.164980 100 14998ft 240kts
19-May-18 08:09 38.014364 -119.081068 100 14998ft 240kts
19-May-18 08:10 38.004618 -118.997198 100 14999ft 240kts
19-May-18 08:11 37.994859 -118.913821 101 14998ft 239kts
19-May-18 08:12 37.985099 -118.830978 101 14998ft 236kts
19-May-18 08:13 37.975376 -118.748930 101 14997ft 233kts
19-May-18 08:14 37.953119 -118.677194 149 14993ft 226kts
19-May-18 08:15 37.897499 -118.644845 156 14319ft 202kts
19-May-18 08:16 37.849980 -118.619243 156 13573ft 176kts
19-May-18 08:17 37.803782 -118.594401 155 13008ft 183kts
19-May-18 08:18 37.756908 -118.569232 155 13002ft 187kts
19-May-18 08:19 37.708499 -118.543278 156 12960ft 192kts
19-May-18 08:20 37.653524 -118.514469 165 11528ft 230kts
19-May-18 08:21 37.626379 -118.578423 262 10016ft 245kts
19-May-18 08:22 37.618368 -118.654319 260 9083ft 188kts
19-May-18 08:23 37.614368 -118.710261 273 8854ft 146kts
19-May-18 08:24 37.617198 -118.760658 274 8119ft 144kts
19-May-18 08:25 37.615625 -118.810052 285 7391ft 135kts
19-May-18 08:26 37.625501 -118.842190 18 7115ft 14kts
19-May-18 08:27 37.626426 -118.841794 358 7114ft 5kts

Navigation Log

Ident Type
Flight plan parsing failed, navigation log unavailable